createdAt,value
2022-10-14T00:00:51.959Z,99933.25
2022-10-14T00:03:18.588Z,99922.97
2022-10-14T00:05:45.310Z,99954.16
2022-10-14T00:08:12.366Z,99956.84
2022-10-14T00:10:39.594Z,99954.56
2022-10-14T00:13:06.820Z,99956.22
2022-10-14T00:15:40.762Z,99950.88
2022-10-14T00:18:10.095Z,99959.91
2022-10-14T00:20:36.761Z,99968.91
2022-10-14T00:23:03.943Z,99968.94
2022-10-14T00:25:30.925Z,99973.41
2022-10-14T00:27:57.598Z,99969.47
2022-10-14T00:30:24.353Z,99968.50
2022-10-14T00:32:51.018Z,99978.53
2022-10-14T00:35:17.972Z,99965.19
2022-10-14T00:37:44.674Z,99973.78
2022-10-14T00:40:13.124Z,99965.78
2022-10-14T00:42:39.911Z,99977.06
2022-10-14T00:45:13.503Z,99969.69
2022-10-14T00:47:42.155Z,99968.88
2022-10-14T00:50:10.080Z,99950.22
2022-10-14T00:52:37.259Z,99940.59
2022-10-14T00:55:10.246Z,99966.00
2022-10-14T00:57:38.456Z,99964.03
2022-10-14T01:00:13.823Z,99958.69
2022-10-14T01:02:41.078Z,99951.25
2022-10-14T01:05:10.277Z,99938.53
2022-10-14T01:07:54.214Z,99963.38
2022-10-14T01:10:33.027Z,99958.25
2022-10-14T01:12:59.645Z,99960.72
2022-10-14T01:15:48.171Z,99964.00
2022-10-14T01:19:11.910Z,99948.84
2022-10-14T01:21:55.923Z,99898.13
2022-10-14T01:24:42.174Z,99954.56
2022-10-14T01:27:24.754Z,99952.94
2022-10-14T01:30:09.238Z,99949.88
2022-10-14T01:32:41.691Z,99947.19
2022-10-14T01:35:26.513Z,99934.88
2022-10-14T01:38:04.149Z,99935.50
2022-10-14T01:40:49.524Z,99940.00
2022-10-14T01:43:19.284Z,99928.94
2022-10-14T01:45:49.574Z,99905.31
2022-10-14T01:48:19.545Z,99944.91
2022-10-14T01:50:50.040Z,99931.97
2022-10-14T01:53:25.970Z,99920.06
2022-10-14T01:55:55.264Z,99933.38
2022-10-14T01:58:25.641Z,99934.63
2022-10-14T02:00:52.533Z,99927.06
2022-10-14T02:03:19.385Z,99937.72
2022-10-14T02:05:53.393Z,99939.34
2022-10-14T02:08:40.332Z,99926.00
2022-10-14T02:11:22.238Z,99939.34
2022-10-14T02:14:01.100Z,99930.94
2022-10-14T02:16:30.639Z,99937.75
2022-10-14T02:19:34.876Z,99930.38
2022-10-14T02:22:15.104Z,99923.59
2022-10-14T02:24:54.548Z,99900.41
2022-10-14T02:27:25.192Z,99918.47
2022-10-14T02:29:56.048Z,99908.63
2022-10-14T02:33:12.772Z,99902.03
2022-10-14T02:35:41.461Z,99907.19
2022-10-14T02:38:09.772Z,99900.00
2022-10-14T02:40:41.739Z,99878.25
2022-10-14T02:43:10.817Z,99880.31
2022-10-14T02:45:38.740Z,99887.25
2022-10-14T02:48:06.391Z,99882.34
2022-10-14T02:50:33.197Z,99852.00
2022-10-14T02:52:59.838Z,99867.56
2022-10-14T02:55:26.694Z,99876.63
2022-10-14T02:57:53.343Z,99850.34
2022-10-14T03:00:20.281Z,99865.53
2022-10-14T03:02:47.007Z,99858.97
2022-10-14T03:05:15.908Z,99862.25
2022-10-14T03:07:42.564Z,99836.41
2022-10-14T03:10:12.331Z,99850.56
2022-10-14T03:12:39.546Z,99840.91
2022-10-14T03:15:13.223Z,99855.44
2022-10-14T03:17:40.365Z,99854.84
2022-10-14T03:20:08.002Z,99863.44
2022-10-14T03:22:42.525Z,99860.81
2022-10-14T03:25:09.908Z,99849.53
2022-10-14T03:27:42.819Z,99783.31
2022-10-14T03:30:13.209Z,99853.81
2022-10-14T03:32:52.352Z,99848.50
2022-10-14T03:35:31.795Z,99823.47
2022-10-14T03:38:02.268Z,99840.28
2022-10-14T03:40:31.404Z,99819.00
2022-10-14T03:43:01.219Z,99822.28
2022-10-14T03:45:35.246Z,99827.78
2022-10-14T03:48:03.306Z,99829.44
2022-10-14T03:50:29.991Z,99803.19
2022-10-14T03:52:57.462Z,99818.38
2022-10-14T03:55:30.821Z,99821.63
2022-10-14T03:57:57.800Z,99818.38
2022-10-14T04:00:25.841Z,99815.88
2022-10-14T04:03:05.273Z,99798.00
2022-10-14T04:05:42.737Z,99820.78
2022-10-14T04:08:16.658Z,99824.28
2022-10-14T04:10:54.459Z,99802.56
2022-10-14T04:13:22.255Z,99820.41
2022-10-14T04:15:49.268Z,99793.31
2022-10-14T04:18:30.618Z,99806.00
2022-10-14T04:21:05.681Z,99811.94
2022-10-14T04:23:34.112Z,99824.03
2022-10-14T04:26:09.377Z,99811.94
2022-10-14T04:28:38.210Z,99828.34
2022-10-14T04:31:13.582Z,99823.44
2022-10-14T04:33:53.072Z,99809.53
2022-10-14T04:36:27.130Z,99819.00
2022-10-14T04:38:56.029Z,99802.78
2022-10-14T04:41:23.805Z,99808.94
2022-10-14T04:43:50.530Z,99800.75
2022-10-14T04:46:31.570Z,99804.44
2022-10-14T04:48:58.844Z,99800.53
2022-10-14T04:51:29.494Z,99800.91
2022-10-14T04:54:19.257Z,99800.72
2022-10-14T04:56:57.348Z,99776.53
2022-10-14T04:59:24.183Z,99778.81
2022-10-14T05:02:11.800Z,99754.22
2022-10-14T05:04:44.023Z,99749.69
2022-10-14T05:07:11.555Z,99770.81
2022-10-14T05:09:38.493Z,99759.53
2022-10-14T05:12:14.675Z,99770.00
2022-10-14T05:14:48.927Z,99763.44
2022-10-14T05:17:22.979Z,99754.00
2022-10-14T05:19:50.056Z,99755.06
2022-10-14T05:22:18.765Z,99746.66
2022-10-14T05:24:46.131Z,99755.88
2022-10-14T05:27:13.519Z,99751.56
2022-10-14T05:29:40.969Z,99707.72
2022-10-14T05:32:08.359Z,99718.59
2022-10-14T05:34:42.331Z,99745.84
2022-10-14T05:37:13.398Z,99746.25
2022-10-14T05:39:47.240Z,99749.31
2022-10-14T05:42:18.243Z,99745.63
2022-10-14T05:44:45.316Z,99759.75
2022-10-14T05:47:13.130Z,99750.75
2022-10-14T05:49:42.793Z,99741.13
2022-10-14T05:52:09.765Z,99742.56
2022-10-14T05:54:36.662Z,99722.28
2022-10-14T05:57:05.977Z,99721.84
2022-10-14T05:59:34.674Z,99723.28
2022-10-14T06:02:02.404Z,99730.47
2022-10-14T06:04:29.347Z,99734.34
2022-10-14T06:06:56.267Z,99724.94
2022-10-14T06:09:23.345Z,99746.03
2022-10-14T06:11:50.265Z,99735.97
2022-10-14T06:14:17.028Z,99742.53
2022-10-14T06:16:45.135Z,99752.34
2022-10-14T06:19:11.857Z,99751.97
2022-10-14T06:21:38.764Z,99726.16
2022-10-14T06:24:05.644Z,99733.53
2022-10-14T06:26:32.558Z,99753.19
2022-10-14T06:28:59.343Z,99752.38
2022-10-14T06:31:31.254Z,99751.16
2022-10-14T06:33:59.028Z,99744.78
2022-10-14T06:36:25.815Z,99739.25
2022-10-14T06:38:52.641Z,99735.34
2022-10-14T06:41:19.337Z,99732.50
2022-10-14T06:43:46.003Z,99730.03
2022-10-14T06:46:12.674Z,99747.00
2022-10-14T06:48:39.332Z,99749.03
2022-10-14T06:51:06.300Z,99727.94
2022-10-14T06:53:33.063Z,99745.31
2022-10-14T06:56:00.528Z,99745.34
2022-10-14T06:58:28.268Z,99734.28
2022-10-14T07:00:55.167Z,99709.69
2022-10-14T07:03:21.905Z,99739.81
2022-10-14T07:05:48.661Z,99745.94
2022-10-14T07:08:15.880Z,99721.97
2022-10-14T07:10:42.801Z,99719.47
2022-10-14T07:13:09.620Z,99723.38
2022-10-14T07:15:37.977Z,99743.88
2022-10-14T07:18:06.247Z,99745.88
2022-10-14T07:20:35.732Z,99744.19
2022-10-14T07:23:02.430Z,99737.34
2022-10-14T07:25:29.222Z,99719.72
2022-10-14T07:27:55.949Z,99732.31
2022-10-14T07:30:22.910Z,99737.41
2022-10-14T07:32:49.877Z,99727.88
2022-10-14T07:35:17.265Z,99711.25
2022-10-14T07:37:43.935Z,99700.59
2022-10-14T07:40:11.145Z,99736.22
2022-10-14T07:42:37.931Z,99711.06
2022-10-14T07:45:06.658Z,99716.16
2022-10-14T07:47:33.737Z,99733.06
2022-10-14T07:50:01.506Z,99707.50
2022-10-14T07:52:28.296Z,99727.91
2022-10-14T07:54:55.029Z,99718.78
2022-10-14T07:57:23.432Z,99717.44
2022-10-14T07:59:52.332Z,99689.34
2022-10-14T08:02:19.686Z,99686.34
2022-10-14T08:04:47.177Z,99697.63
2022-10-14T08:07:16.467Z,99726.63
2022-10-14T08:09:43.184Z,99726.28
2022-10-14T08:12:10.286Z,99707.91
2022-10-14T08:14:37.454Z,99722.69
2022-10-14T08:17:04.536Z,99707.81
2022-10-14T08:19:32.057Z,99721.13
2022-10-14T08:21:59.006Z,99705.81
2022-10-14T08:24:25.709Z,99725.53
2022-10-14T08:26:57.997Z,99709.41
2022-10-14T08:29:25.563Z,99717.81
2022-10-14T08:31:54.123Z,99705.84
2022-10-14T08:34:21.741Z,99718.91
2022-10-14T08:36:48.987Z,99688.63
2022-10-14T08:39:19.522Z,99708.09
2022-10-14T08:42:13.514Z,99709.66
2022-10-14T08:48:16.118Z,99709.03
2022-10-14T08:50:50.948Z,99672.56
2022-10-14T08:53:34.033Z,99688.53
2022-10-14T08:56:02.452Z,99697.75
2022-10-14T08:58:58.758Z,99701.72
2022-10-14T09:01:32.382Z,99704.22
2022-10-14T09:04:05.256Z,99693.13
2022-10-14T09:06:34.957Z,99688.25
2022-10-14T09:09:11.771Z,99695.56
2022-10-14T09:11:45.154Z,99689.47
2022-10-14T09:14:25.059Z,99687.91
2022-10-14T09:16:57.683Z,99679.66
2022-10-14T09:19:32.974Z,99668.59
2022-10-14T09:22:01.495Z,99681.53
2022-10-14T09:24:35.873Z,99666.47
2022-10-14T09:27:16.151Z,99672.72
2022-10-14T09:29:45.807Z,99679.19
2022-10-14T09:32:34.179Z,99665.19
2022-10-14T09:35:02.606Z,99668.19
2022-10-14T09:37:35.960Z,99665.97
2022-10-14T09:40:06.701Z,99676.19
2022-10-14T09:42:47.546Z,99669.13
2022-10-14T09:45:22.570Z,99664.13
2022-10-14T09:48:10.838Z,99657.25
2022-10-14T09:50:47.053Z,99651.91
2022-10-14T09:53:30.399Z,99657.13
2022-10-14T09:56:02.882Z,99649.22
2022-10-14T09:58:32.549Z,99656.00
2022-10-14T10:01:00.685Z,99648.22
2022-10-14T10:03:34.131Z,99631.31
2022-10-14T10:06:07.525Z,99647.31
2022-10-14T10:08:38.421Z,99642.31
2022-10-14T10:11:13.828Z,99638.22
2022-10-14T10:13:44.948Z,99638.44
2022-10-14T10:16:32.872Z,99635.44
2022-10-14T10:19:20.688Z,99627.06
2022-10-14T10:21:47.599Z,99635.19
2022-10-14T10:24:25.994Z,99609.31
2022-10-14T10:26:55.418Z,99622.56
2022-10-14T10:29:34.501Z,99625.00
2022-10-14T10:32:29.318Z,99623.19
2022-10-14T10:35:22.978Z,99630.22
2022-10-14T10:38:08.257Z,99624.72
2022-10-14T10:41:02.885Z,99628.06
2022-10-14T10:43:57.736Z,99615.56
2022-10-14T10:46:36.684Z,99612.94
2022-10-14T10:49:36.230Z,99590.69
2022-10-14T10:52:21.265Z,99576.63
2022-10-14T10:55:17.956Z,99601.69
2022-10-14T10:58:06.045Z,99592.72
2022-10-14T11:01:06.749Z,99592.69
2022-10-14T11:03:53.736Z,99587.03
2022-10-14T11:06:45.602Z,99587.56
2022-10-14T11:09:41.985Z,99592.34
2022-10-14T11:12:41.949Z,99584.88
2022-10-14T11:17:53.516Z,99565.50
2022-10-14T11:20:34.450Z,99566.81
2022-10-14T11:23:21.509Z,99562.19
2022-10-14T11:26:26.211Z,99565.38
2022-10-14T11:29:04.572Z,99560.84
2022-10-14T11:31:51.740Z,99574.50
2022-10-14T11:34:40.604Z,99570.19
2022-10-14T11:37:13.873Z,99572.38
2022-10-14T11:40:08.166Z,99574.59
2022-10-14T11:42:49.824Z,99583.44
2022-10-14T11:45:20.277Z,99576.69
2022-10-14T11:48:17.431Z,99549.00
2022-10-14T11:50:50.385Z,99558.88
2022-10-14T11:53:25.138Z,99565.41
2022-10-14T11:56:04.831Z,99561.22
2022-10-14T11:58:35.109Z,99552.81
2022-10-14T12:01:18.551Z,99544.78
2022-10-14T12:03:58.598Z,99557.63
2022-10-14T12:06:41.913Z,99552.13
2022-10-14T12:09:59.932Z,99554.13
2022-10-14T12:12:32.418Z,99553.84
2022-10-14T12:15:04.222Z,99543.03
2022-10-14T12:17:52.299Z,99541.63
2022-10-14T12:20:49.804Z,99540.47
2022-10-14T12:23:34.463Z,99527.88
2022-10-14T12:26:35.164Z,99520.19
2022-10-14T12:29:03.863Z,99503.75
2022-10-14T12:31:36.851Z,99523.59
2022-10-14T12:34:15.502Z,99518.50
2022-10-14T12:36:47.379Z,99516.91
2022-10-14T12:39:17.063Z,99498.59
2022-10-14T12:42:13.232Z,99491.72
2022-10-14T12:44:49.104Z,99493.56
2022-10-14T12:47:29.023Z,99479.59
2022-10-14T12:49:58.037Z,99442.34
2022-10-14T12:52:30.754Z,99482.03
2022-10-14T12:55:00.874Z,99478.53
2022-10-14T12:57:38.812Z,99480.00
2022-10-14T13:00:23.508Z,99493.16
2022-10-14T13:03:01.262Z,99483.84
2022-10-14T13:05:38.725Z,99488.22
2022-10-14T13:08:20.404Z,99484.19
2022-10-14T13:11:12.114Z,99489.69
2022-10-14T13:13:59.030Z,99467.59
2022-10-14T13:16:25.664Z,99485.81
2022-10-14T13:19:02.397Z,99470.28
2022-10-14T13:21:36.644Z,99473.09
2022-10-14T13:24:26.093Z,99485.50
2022-10-14T13:26:53.367Z,99478.91
2022-10-14T13:29:20.096Z,99475.81
2022-10-14T13:31:58.596Z,99467.53
2022-10-14T13:34:43.632Z,99478.28
2022-10-14T13:37:19.247Z,99470.06
2022-10-14T13:39:46.511Z,99457.22
2022-10-14T13:42:39.535Z,99466.66
2022-10-14T13:45:14.276Z,99459.88
2022-10-14T13:47:43.345Z,99438.00
2022-10-14T13:50:12.798Z,99428.34
2022-10-14T13:52:40.524Z,99450.25
2022-10-14T13:55:19.329Z,99446.84
2022-10-14T13:58:18.591Z,99447.34
2022-10-14T14:00:57.839Z,99418.59
2022-10-14T14:03:36.522Z,99418.03
2022-10-14T14:06:12.848Z,99435.72
2022-10-14T14:08:49.961Z,99421.28
2022-10-14T14:11:26.749Z,99428.97
2022-10-14T14:14:00.765Z,99431.06
2022-10-14T14:16:52.166Z,99420.63
2022-10-14T14:19:22.143Z,99420.28
2022-10-14T14:21:49.452Z,99400.38
2022-10-14T14:24:23.541Z,99401.94
2022-10-14T14:26:55.342Z,99424.50
2022-10-14T14:29:28.337Z,99420.44
2022-10-14T14:32:12.574Z,99407.06
2022-10-14T14:34:43.900Z,99419.53
2022-10-14T14:40:16.051Z,99428.75
2022-10-14T14:42:44.906Z,99417.97
2022-10-14T14:45:40.517Z,99428.31
2022-10-14T14:48:08.193Z,99395.63
2022-10-14T14:50:42.903Z,99425.19
2022-10-14T14:53:22.566Z,99428.25
2022-10-14T14:55:55.346Z,99434.53
2022-10-14T14:58:28.247Z,99432.06
2022-10-14T15:00:55.924Z,99426.97
2022-10-14T15:03:25.410Z,99438.50
2022-10-14T15:06:01.885Z,99447.13
2022-10-14T15:08:39.764Z,99439.75
2022-10-14T15:11:06.626Z,99404.44
2022-10-14T15:13:39.187Z,99431.69
2022-10-14T15:16:06.858Z,99407.25
2022-10-14T15:18:36.125Z,99421.13
2022-10-14T15:21:12.404Z,99425.78
2022-10-14T15:23:43.573Z,99419.13
2022-10-14T15:26:35.960Z,99421.22
2022-10-14T15:29:02.586Z,99419.94
2022-10-14T15:31:29.348Z,99387.72
2022-10-14T15:33:56.055Z,99416.69
2022-10-14T15:36:22.812Z,99401.09
2022-10-14T15:38:49.901Z,99408.81
2022-10-14T15:41:16.599Z,99415.56
2022-10-14T15:43:43.514Z,99404.03
2022-10-14T15:46:32.595Z,99413.44
2022-10-14T15:49:03.181Z,99408.66
2022-10-14T15:51:31.169Z,99406.94
2022-10-14T15:53:58.257Z,99396.56
2022-10-14T15:56:24.931Z,99383.53
2022-10-14T15:58:51.634Z,99397.88
2022-10-14T16:01:22.823Z,99397.94
2022-10-14T16:03:55.292Z,99374.31
2022-10-14T16:06:24.054Z,99371.78
2022-10-14T16:08:51.021Z,99392.13
2022-10-14T16:11:22.774Z,99392.38
2022-10-14T16:13:49.597Z,99389.56
2022-10-14T16:16:22.117Z,99386.19
2022-10-14T16:18:48.761Z,99387.47
2022-10-14T16:21:17.153Z,99387.16
2022-10-14T16:23:43.815Z,99362.13
2022-10-14T16:26:10.692Z,99372.63
2022-10-14T16:28:37.620Z,99362.72
2022-10-14T16:31:04.327Z,99363.09
2022-10-14T16:33:31.075Z,99348.91
2022-10-14T16:35:57.993Z,99367.41
2022-10-14T16:38:24.657Z,99375.97
2022-10-14T16:40:59.377Z,99372.41
2022-10-14T16:43:27.095Z,99362.97
2022-10-14T16:45:57.791Z,99367.63
2022-10-14T16:48:25.308Z,99384.13
2022-10-14T16:50:53.918Z,99387.97
2022-10-14T16:53:40.676Z,99396.53
2022-10-14T16:56:37.821Z,99397.31
2022-10-14T16:59:07.548Z,99394.41
2022-10-14T17:01:34.616Z,99390.56
2022-10-14T17:04:02.274Z,99388.84
2022-10-14T17:06:29.078Z,99385.38
2022-10-14T17:08:55.710Z,99389.81
2022-10-14T17:11:23.320Z,99370.97
2022-10-14T17:13:54.256Z,99386.56
2022-10-14T17:16:21.342Z,99380.28
2022-10-14T17:21:21.461Z,99370.16
2022-10-14T17:23:49.302Z,99380.78
2022-10-14T17:26:20.749Z,99378.09
2022-10-14T17:28:48.534Z,99377.28
2022-10-14T17:31:17.745Z,99366.09
2022-10-14T17:33:44.516Z,99352.25
2022-10-14T17:36:30.830Z,99354.34
2022-10-14T17:38:58.933Z,99361.78
2022-10-14T17:41:28.781Z,99367.84
2022-10-14T17:43:57.137Z,99350.84
2022-10-14T17:46:26.153Z,99366.00
2022-10-14T17:48:56.187Z,99344.00
2022-10-14T17:51:25.419Z,99364.00
2022-10-14T17:53:53.887Z,99349.59
2022-10-14T17:56:21.117Z,99349.94
2022-10-14T17:58:51.928Z,99348.19
2022-10-14T18:01:19.700Z,99336.66
2022-10-14T18:03:56.357Z,99340.59
2022-10-14T18:06:28.521Z,99342.81
2022-10-14T18:08:57.919Z,99349.44
2022-10-14T18:11:25.670Z,99346.16
2022-10-14T18:14:04.115Z,99352.56
2022-10-14T18:16:34.479Z,99326.56
2022-10-14T18:19:10.581Z,99334.84
2022-10-14T18:21:38.586Z,99351.81
2022-10-14T18:24:06.003Z,99318.41
2022-10-14T18:26:34.019Z,99334.84
2022-10-14T18:29:00.978Z,99342.97
2022-10-14T18:31:29.997Z,99351.97
2022-10-14T18:33:59.387Z,99352.69
2022-10-14T18:36:28.489Z,99354.66
2022-10-14T18:38:59.142Z,99354.41
2022-10-14T18:41:26.867Z,99347.66
2022-10-14T18:43:54.565Z,99343.22
2022-10-14T18:46:23.906Z,99335.81
2022-10-14T18:48:52.563Z,99338.63
2022-10-14T18:51:25.428Z,99345.25
2022-10-14T18:53:56.205Z,99338.63
2022-10-14T18:56:28.597Z,99338.84
2022-10-14T18:59:01.788Z,99333.97
2022-10-14T19:01:30.073Z,99341.72
2022-10-14T19:03:57.122Z,99334.28
2022-10-14T19:06:24.248Z,99332.19
2022-10-14T19:08:52.039Z,99321.41
2022-10-14T19:11:22.063Z,99329.31
2022-10-14T19:13:51.957Z,99315.97
2022-10-14T19:16:47.343Z,99309.91
2022-10-14T19:19:18.250Z,99303.50
2022-10-14T19:21:49.900Z,99296.44
2022-10-14T19:24:17.399Z,99293.75
2022-10-14T19:26:46.795Z,99294.09
2022-10-14T19:29:15.264Z,99291.31
2022-10-14T19:31:43.841Z,99290.13
2022-10-14T19:34:13.966Z,99284.31
2022-10-14T19:36:41.623Z,99269.88
2022-10-14T19:39:11.701Z,99277.13
2022-10-14T19:41:43.100Z,99271.97
2022-10-14T19:44:11.561Z,99270.25
2022-10-14T19:46:38.869Z,99269.75
2022-10-14T19:49:06.273Z,99255.97
2022-10-14T19:51:34.573Z,99229.91
2022-10-14T19:54:01.894Z,99245.47
2022-10-14T19:56:28.862Z,99252.31
2022-10-14T19:58:58.119Z,99239.28
2022-10-14T20:01:27.923Z,99236.53
2022-10-14T20:03:54.867Z,99243.13
2022-10-14T20:06:23.049Z,99221.50
2022-10-14T20:08:50.075Z,99237.78
2022-10-14T20:11:19.109Z,99218.50
2022-10-14T20:13:46.775Z,99225.16
2022-10-14T20:16:14.246Z,99219.97
2022-10-14T20:18:41.697Z,99223.66
2022-10-14T20:21:11.475Z,99224.81
2022-10-14T20:23:38.619Z,99203.34
2022-10-14T20:26:08.378Z,99219.78
2022-10-14T20:28:36.497Z,99203.41
2022-10-14T20:31:06.690Z,99213.56
2022-10-14T20:33:33.403Z,99206.44
2022-10-14T20:36:10.134Z,99209.91
2022-10-14T20:38:40.744Z,99204.75
2022-10-14T20:41:19.871Z,99200.19
2022-10-14T20:43:47.848Z,99209.97
2022-10-14T20:46:14.924Z,99205.69
2022-10-14T20:48:42.201Z,99207.53
2022-10-14T20:51:15.720Z,99202.19
2022-10-14T20:53:42.377Z,99203.34
2022-10-14T20:56:11.553Z,99202.63
2022-10-14T20:58:38.607Z,99201.38
2022-10-14T21:01:08.124Z,99197.31
2022-10-14T21:03:35.413Z,99195.00
2022-10-14T21:06:08.109Z,99189.56
2022-10-14T21:08:35.658Z,99202.56
2022-10-14T21:11:07.026Z,99181.16
2022-10-14T21:13:35.959Z,99181.53
2022-10-14T21:16:12.853Z,99163.75
2022-10-14T21:18:39.729Z,99176.91
2022-10-14T21:21:06.549Z,99174.16
2022-10-14T21:23:34.610Z,99172.53
2022-10-14T21:26:01.293Z,99150.94
2022-10-14T21:28:28.067Z,99159.66
2022-10-14T21:30:54.909Z,99170.47
2022-10-14T21:33:21.614Z,99160.94
2022-10-14T21:35:48.399Z,99149.75
2022-10-14T21:38:15.083Z,99160.22
2022-10-14T21:40:41.786Z,99164.63
2022-10-14T21:43:08.529Z,99154.75
2022-10-14T21:45:35.340Z,99146.41
2022-10-14T21:48:02.153Z,99146.88
2022-10-14T21:50:28.824Z,99139.47
2022-10-14T21:52:55.530Z,99140.06
2022-10-14T21:55:22.204Z,99136.34
2022-10-14T21:57:49.075Z,99137.25
2022-10-14T22:00:16.033Z,99136.09
2022-10-14T22:02:42.852Z,99119.38
2022-10-14T22:05:09.701Z,99124.63
2022-10-14T22:07:36.351Z,99121.59
2022-10-14T22:10:23.652Z,99125.44
2022-10-14T22:12:50.298Z,99122.75
2022-10-14T22:15:16.989Z,99119.28
2022-10-14T22:17:43.713Z,99111.50
2022-10-14T22:20:11.008Z,99103.88
2022-10-14T22:22:37.703Z,99117.22
2022-10-14T22:25:04.871Z,99102.09
2022-10-14T22:27:31.555Z,99098.97
2022-10-14T22:29:58.658Z,99074.13
2022-10-14T22:32:25.297Z,99093.03
2022-10-14T22:34:51.946Z,99086.88
2022-10-14T22:37:18.822Z,99065.66
2022-10-14T22:39:45.515Z,99084.81
2022-10-14T22:42:12.218Z,99082.72
2022-10-14T22:44:38.933Z,99083.19
2022-10-14T22:47:05.622Z,99046.94
2022-10-14T22:49:32.286Z,99055.06
2022-10-14T22:51:59.028Z,99061.13
2022-10-14T22:54:25.734Z,99074.13
2022-10-14T22:56:52.355Z,99069.69
2022-10-14T22:59:18.998Z,99072.84
2022-10-14T23:01:45.642Z,99067.25
2022-10-14T23:04:12.325Z,99075.25
2022-10-14T23:06:39.476Z,99075.13
2022-10-14T23:09:06.115Z,99080.91
2022-10-14T23:11:32.771Z,99063.28
2022-10-14T23:14:02.800Z,99057.59
2022-10-14T23:16:33.097Z,99051.91
2022-10-14T23:18:59.793Z,99060.59
2022-10-14T23:21:29.067Z,99057.56
2022-10-14T23:23:58.546Z,99072.66
2022-10-14T23:26:27.700Z,99069.53
2022-10-14T23:28:57.426Z,99069.22
2022-10-14T23:31:28.881Z,99053.44
2022-10-14T23:33:58.136Z,99059.84
2022-10-14T23:36:25.123Z,99052.88
2022-10-14T23:38:52.529Z,99054.88
2022-10-14T23:41:22.016Z,99040.72
2022-10-14T23:43:50.342Z,99056.34
2022-10-14T23:46:18.288Z,99050.19
2022-10-14T23:48:51.460Z,99053.44
2022-10-14T23:51:27.675Z,99053.44
2022-10-14T23:53:54.360Z,99052.53
2022-10-14T23:56:21.075Z,99034.66
2022-10-14T23:58:47.716Z,99033.84
